sensor_id;sensor_type;location;lat;lon;timestamp;pressure;altitude;pressure_sealevel;temperature;humidity
7802;BME280;3945;48.952;9.506;2023-08-21T00:02:11;98417.56;;;24.22;91.68
7802;BME280;3945;48.952;9.506;2023-08-21T00:04:38;98412.47;;;24.20;92.01
7802;BME280;3945;48.952;9.506;2023-08-21T00:07:04;98413.72;;;24.23;91.88
7802;BME280;3945;48.952;9.506;2023-08-21T00:09:31;98414.22;;;24.25;91.44
7802;BME280;3945;48.952;9.506;2023-08-21T00:11:57;98407.16;;;24.24;91.42
7802;BME280;3945;48.952;9.506;2023-08-21T00:14:24;98399.50;;;24.26;91.56
7802;BME280;3945;48.952;9.506;2023-08-21T00:16:51;98404.94;;;24.26;90.91
7802;BME280;3945;48.952;9.506;2023-08-21T00:19:18;98410.69;;;24.24;91.11
7802;BME280;3945;48.952;9.506;2023-08-21T00:21:44;98412.78;;;24.27;91.15
7802;BME280;3945;48.952;9.506;2023-08-21T00:24:10;98413.25;;;24.29;91.12
7802;BME280;3945;48.952;9.506;2023-08-21T00:26:37;98418.69;;;24.29;91.06
7802;BME280;3945;48.952;9.506;2023-08-21T00:29:03;98424.94;;;24.30;92.10
7802;BME280;3945;48.952;9.506;2023-08-21T00:31:29;98413.25;;;24.29;91.82
7802;BME280;3945;48.952;9.506;2023-08-21T00:33:57;98419.16;;;24.23;92.35
7802;BME280;3945;48.952;9.506;2023-08-21T00:36:23;98417.09;;;24.20;92.32
7802;BME280;3945;48.952;9.506;2023-08-21T00:38:49;98414.66;;;24.18;92.50
7802;BME280;3945;48.952;9.506;2023-08-21T00:41:16;98413.84;;;24.18;92.28
7802;BME280;3945;48.952;9.506;2023-08-21T00:43:42;98409.84;;;24.15;92.60
7802;BME280;3945;48.952;9.506;2023-08-21T00:46:08;98409.03;;;24.14;92.73
7802;BME280;3945;48.952;9.506;2023-08-21T00:48:35;98412.53;;;24.06;93.01
7802;BME280;3945;48.952;9.506;2023-08-21T00:51:03;98402.31;;;24.03;93.25
7802;BME280;3945;48.952;9.506;2023-08-21T00:53:31;98401.00;;;24.01;93.04
7802;BME280;3945;48.952;9.506;2023-08-21T00:55:58;98404.72;;;24.05;92.78
7802;BME280;3945;48.952;9.506;2023-08-21T00:58:24;98410.97;;;24.05;92.49
7802;BME280;3945;48.952;9.506;2023-08-21T01:00:51;98417.97;;;24.06;92.81
7802;BME280;3945;48.952;9.506;2023-08-21T01:03:18;98401.19;;;24.04;93.04
7802;BME280;3945;48.952;9.506;2023-08-21T01:05:44;98400.06;;;23.97;93.51
7802;BME280;3945;48.952;9.506;2023-08-21T01:08:14;98398.09;;;23.89;93.85
7802;BME280;3945;48.952;9.506;2023-08-21T01:10:45;98388.31;;;23.79;94.08
7802;BME280;3945;48.952;9.506;2023-08-21T01:13:32;98400.94;;;23.75;94.28
7802;BME280;3945;48.952;9.506;2023-08-21T01:16:00;98400.16;;;23.74;94.11
7802;BME280;3945;48.952;9.506;2023-08-21T01:18:29;98411.81;;;23.75;94.54
7802;BME280;3945;48.952;9.506;2023-08-21T01:20:56;98412.44;;;23.72;94.46
7802;BME280;3945;48.952;9.506;2023-08-21T01:23:29;98413.25;;;23.72;94.73
7802;BME280;3945;48.952;9.506;2023-08-21T01:25:55;98407.97;;;23.67;94.65
7802;BME280;3945;48.952;9.506;2023-08-21T01:28:21;98411.59;;;23.63;94.17
7802;BME280;3945;48.952;9.506;2023-08-21T01:30:48;98410.94;;;23.57;94.34
7802;BME280;3945;48.952;9.506;2023-08-21T01:33:16;98404.53;;;23.53;94.35
7802;BME280;3945;48.952;9.506;2023-08-21T01:38:42;98407.13;;;23.36;94.76
7802;BME280;3945;48.952;9.506;2023-08-21T01:41:09;98412.72;;;23.31;94.63
7802;BME280;3945;48.952;9.506;2023-08-21T01:43:35;98402.66;;;23.31;94.85
7802;BME280;3945;48.952;9.506;2023-08-21T01:46:02;98409.69;;;23.32;95.48
7802;BME280;3945;48.952;9.506;2023-08-21T01:48:28;98401.84;;;23.31;94.79
7802;BME280;3945;48.952;9.506;2023-08-21T01:50:54;98397.81;;;23.28;95.35
7802;BME280;3945;48.952;9.506;2023-08-21T01:53:21;98403.41;;;23.23;95.22
7802;BME280;3945;48.952;9.506;2023-08-21T01:55:48;98401.28;;;23.20;95.13
7802;BME280;3945;48.952;9.506;2023-08-21T01:58:15;98388.16;;;23.14;94.86
7802;BME280;3945;48.952;9.506;2023-08-21T02:00:41;98396.66;;;23.12;94.90
7802;BME280;3945;48.952;9.506;2023-08-21T02:03:07;98398.88;;;23.10;95.05
7802;BME280;3945;48.952;9.506;2023-08-21T02:05:37;98396.94;;;23.11;94.77
7802;BME280;3945;48.952;9.506;2023-08-21T02:08:03;98395.03;;;23.11;95.38
7802;BME280;3945;48.952;9.506;2023-08-21T02:10:30;98400.09;;;23.04;94.88
7802;BME280;3945;48.952;9.506;2023-08-21T02:12:57;98393.19;;;22.98;94.89
7802;BME280;3945;48.952;9.506;2023-08-21T02:15:24;98395.72;;;22.94;94.83
7802;BME280;3945;48.952;9.506;2023-08-21T02:17:50;98400.94;;;22.91;95.23
7802;BME280;3945;48.952;9.506;2023-08-21T02:20:16;98394.84;;;22.85;95.38
7802;BME280;3945;48.952;9.506;2023-08-21T02:22:43;98402.84;;;22.82;95.15
7802;BME280;3945;48.952;9.506;2023-08-21T02:25:09;98401.34;;;22.76;95.63
7802;BME280;3945;48.952;9.506;2023-08-21T02:27:35;98399.66;;;22.66;96.61
7802;BME280;3945;48.952;9.506;2023-08-21T02:30:04;98404.19;;;22.57;97.36
7802;BME280;3945;48.952;9.506;2023-08-21T02:32:30;98406.22;;;22.51;97.34
7802;BME280;3945;48.952;9.506;2023-08-21T02:34:56;98403.00;;;22.49;97.60
7802;BME280;3945;48.952;9.506;2023-08-21T02:37:23;98404.91;;;22.49;97.76
7802;BME280;3945;48.952;9.506;2023-08-21T02:39:49;98397.13;;;22.47;97.75
7802;BME280;3945;48.952;9.506;2023-08-21T02:42:15;98402.84;;;22.46;97.95
7802;BME280;3945;48.952;9.506;2023-08-21T02:44:42;98405.03;;;22.44;97.84
7802;BME280;3945;48.952;9.506;2023-08-21T02:47:09;98405.84;;;22.44;97.51
7802;BME280;3945;48.952;9.506;2023-08-21T02:49:36;98400.94;;;22.46;97.58
7802;BME280;3945;48.952;9.506;2023-08-21T02:52:02;98396.59;;;22.45;97.16
7802;BME280;3945;48.952;9.506;2023-08-21T02:54:28;98403.56;;;22.38;97.14
7802;BME280;3945;48.952;9.506;2023-08-21T02:56:55;98399.03;;;22.33;97.12
7802;BME280;3945;48.952;9.506;2023-08-21T02:59:21;98404.06;;;22.26;96.91
7802;BME280;3945;48.952;9.506;2023-08-21T03:01:47;98407.19;;;22.19;96.88
7802;BME280;3945;48.952;9.506;2023-08-21T03:04:15;98404.44;;;22.11;97.48
7802;BME280;3945;48.952;9.506;2023-08-21T03:06:41;98405.84;;;22.08;97.31
7802;BME280;3945;48.952;9.506;2023-08-21T03:09:08;98398.28;;;22.05;97.20
7802;BME280;3945;48.952;9.506;2023-08-21T03:11:34;98408.84;;;22.07;97.48
7802;BME280;3945;48.952;9.506;2023-08-21T03:14:00;98404.03;;;22.04;97.65
7802;BME280;3945;48.952;9.506;2023-08-21T03:16:27;98404.03;;;22.04;98.11
7802;BME280;3945;48.952;9.506;2023-08-21T03:18:54;98408.66;;;22.03;97.85
7802;BME280;3945;48.952;9.506;2023-08-21T03:21:22;98400.19;;;22.05;97.58
7802;BME280;3945;48.952;9.506;2023-08-21T03:23:50;98404.84;;;22.04;97.66
7802;BME280;3945;48.952;9.506;2023-08-21T03:26:16;98411.38;;;22.03;97.89
7802;BME280;3945;48.952;9.506;2023-08-21T03:28:42;98408.94;;;22.02;97.58
7802;BME280;3945;48.952;9.506;2023-08-21T03:31:09;98409.75;;;22.02;97.78
7802;BME280;3945;48.952;9.506;2023-08-21T03:33:35;98408.66;;;22.03;97.79
7802;BME280;3945;48.952;9.506;2023-08-21T03:36:01;98416.16;;;22.06;97.21
7802;BME280;3945;48.952;9.506;2023-08-21T03:38:29;98415.88;;;22.08;97.08
7802;BME280;3945;48.952;9.506;2023-08-21T03:40:55;98418.06;;;22.06;97.52
7802;BME280;3945;48.952;9.506;2023-08-21T03:43:22;98422.22;;;22.03;97.41
7802;BME280;3945;48.952;9.506;2023-08-21T03:45:48;98415.78;;;21.99;97.94
7802;BME280;3945;48.952;9.506;2023-08-21T03:48:14;98422.09;;;21.95;98.04
7802;BME280;3945;48.952;9.506;2023-08-21T03:50:41;98415.97;;;21.89;97.84
7802;BME280;3945;48.952;9.506;2023-08-21T03:53:07;98417.97;;;21.83;98.01
7802;BME280;3945;48.952;9.506;2023-08-21T03:55:35;98417.78;;;21.80;98.30
7802;BME280;3945;48.952;9.506;2023-08-21T03:58:01;98424.09;;;21.75;98.38
7802;BME280;3945;48.952;9.506;2023-08-21T04:00:27;98429.31;;;21.72;98.85
7802;BME280;3945;48.952;9.506;2023-08-21T04:02:54;98424.19;;;21.70;98.89
7802;BME280;3945;48.952;9.506;2023-08-21T04:05:20;98426.38;;;21.68;99.08
7802;BME280;3945;48.952;9.506;2023-08-21T04:07:46;98431.63;;;21.65;99.12
7802;BME280;3945;48.952;9.506;2023-08-21T04:10:13;98423.78;;;21.63;99.13
7802;BME280;3945;48.952;9.506;2023-08-21T04:12:40;98431.41;;;21.61;99.21
7802;BME280;3945;48.952;9.506;2023-08-21T04:15:07;98429.81;;;21.60;99.44
7802;BME280;3945;48.952;9.506;2023-08-21T04:17:34;98433.09;;;21.57;99.42
7802;BME280;3945;48.952;9.506;2023-08-21T04:20:00;98433.09;;;21.57;99.11
7802;BME280;3945;48.952;9.506;2023-08-21T04:22:26;98427.19;;;21.55;99.37
7802;BME280;3945;48.952;9.506;2023-08-21T04:24:53;98434.22;;;21.56;99.28
7802;BME280;3945;48.952;9.506;2023-08-21T04:27:19;98432.31;;;21.57;99.03
7802;BME280;3945;48.952;9.506;2023-08-21T04:29:47;98437.72;;;21.57;99.24
7802;BME280;3945;48.952;9.506;2023-08-21T04:32:13;98443.94;;;21.57;99.00
7802;BME280;3945;48.952;9.506;2023-08-21T04:34:40;98442.63;;;21.55;99.33
7802;BME280;3945;48.952;9.506;2023-08-21T04:37:06;98449.19;;;21.54;99.38
7802;BME280;3945;48.952;9.506;2023-08-21T04:39:32;98441.03;;;21.54;99.07
7802;BME280;3945;48.952;9.506;2023-08-21T04:41:59;98445.34;;;21.55;99.24
7802;BME280;3945;48.952;9.506;2023-08-21T04:44:26;98441.81;;;21.54;99.37
7802;BME280;3945;48.952;9.506;2023-08-21T04:46:53;98444.84;;;21.53;99.50
7802;BME280;3945;48.952;9.506;2023-08-21T04:49:20;98445.16;;;21.51;99.45
7802;BME280;3945;48.952;9.506;2023-08-21T04:51:46;98442.72;;;21.50;100.00
7802;BME280;3945;48.952;9.506;2023-08-21T04:54:12;98453.56;;;21.50;100.00
7802;BME280;3945;48.952;9.506;2023-08-21T04:56:39;98443.03;;;21.48;100.00
7802;BME280;3945;48.952;9.506;2023-08-21T04:59:05;98445.44;;;21.50;100.00
7802;BME280;3945;48.952;9.506;2023-08-21T05:01:31;98450.06;;;21.49;100.00
7802;BME280;3945;48.952;9.506;2023-08-21T05:03:59;98455.75;;;21.48;100.00
7802;BME280;3945;48.952;9.506;2023-08-21T05:06:25;98451.47;;;21.47;100.00
7802;BME280;3945;48.952;9.506;2023-08-21T05:08:52;98453.06;;;21.48;100.00
7802;BME280;3945;48.952;9.506;2023-08-21T05:11:18;98453.84;;;21.48;100.00
7802;BME280;3945;48.952;9.506;2023-08-21T05:13:44;98454.38;;;21.50;100.00
7802;BME280;3945;48.952;9.506;2023-08-21T05:16:11;98462.50;;;21.50;100.00
7802;BME280;3945;48.952;9.506;2023-08-21T05:18:37;98460.31;;;21.52;100.00
7802;BME280;3945;48.952;9.506;2023-08-21T05:21:05;98457.31;;;21.54;100.00
7802;BME280;3945;48.952;9.506;2023-08-21T05:23:31;98458.28;;;21.58;100.00
7802;BME280;3945;48.952;9.506;2023-08-21T05:25:57;98460.72;;;21.59;100.00
7802;BME280;3945;48.952;9.506;2023-08-21T05:28:23;98468.22;;;21.62;100.00
7802;BME280;3945;48.952;9.506;2023-08-21T05:30:50;98467.34;;;21.67;100.00
7802;BME280;3945;48.952;9.506;2023-08-21T05:33:16;98456.69;;;21.70;100.00
7802;BME280;3945;48.952;9.506;2023-08-21T05:35:42;98463.13;;;21.74;100.00
7802;BME280;3945;48.952;9.506;2023-08-21T05:38:10;98465.75;;;21.79;100.00
7802;BME280;3945;48.952;9.506;2023-08-21T05:40:36;98469.16;;;21.85;100.00
7802;BME280;3945;48.952;9.506;2023-08-21T05:43:03;98467.66;;;21.93;100.00
7802;BME280;3945;48.952;9.506;2023-08-21T05:45:29;98467.91;;;21.96;100.00
7802;BME280;3945;48.952;9.506;2023-08-21T05:47:56;98468.59;;;22.02;100.00
7802;BME280;3945;48.952;9.506;2023-08-21T05:50:22;98472.50;;;22.09;100.00
7802;BME280;3945;48.952;9.506;2023-08-21T05:52:48;98471.81;;;22.17;100.00
7802;BME280;3945;48.952;9.506;2023-08-21T05:55:17;98471.88;;;22.26;100.00
7802;BME280;3945;48.952;9.506;2023-08-21T05:57:44;98480.50;;;22.42;100.00
7802;BME280;3945;48.952;9.506;2023-08-21T06:00:11;98477.75;;;22.55;100.00
7802;BME280;3945;48.952;9.506;2023-08-21T06:02:39;98482.53;;;22.72;100.00
7802;BME280;3945;48.952;9.506;2023-08-21T06:05:07;98487.81;;;22.91;100.00
7802;BME280;3945;48.952;9.506;2023-08-21T06:07:34;98490.09;;;23.11;99.49
7802;BME280;3945;48.952;9.506;2023-08-21T06:10:00;98488.16;;;23.34;97.44
7802;BME280;3945;48.952;9.506;2023-08-21T06:12:28;98490.84;;;23.56;95.58
7802;BME280;3945;48.952;9.506;2023-08-21T06:14:54;98490.81;;;23.79;94.33
7802;BME280;3945;48.952;9.506;2023-08-21T06:17:21;98493.16;;;24.02;92.89
7802;BME280;3945;48.952;9.506;2023-08-21T06:19:47;98496.94;;;24.24;91.57
7802;BME280;3945;48.952;9.506;2023-08-21T06:22:13;98501.66;;;24.49;90.18
7802;BME280;3945;48.952;9.506;2023-08-21T06:24:40;98489.84;;;24.71;89.62
7802;BME280;3945;48.952;9.506;2023-08-21T06:27:06;98488.13;;;24.92;89.14
7802;BME280;3945;48.952;9.506;2023-08-21T06:29:35;98497.69;;;25.15;87.34
7802;BME280;3945;48.952;9.506;2023-08-21T06:32:02;98501.03;;;25.38;86.43
7802;BME280;3945;48.952;9.506;2023-08-21T06:34:29;98494.13;;;25.58;85.27
7802;BME280;3945;48.952;9.506;2023-08-21T06:36:55;98496.97;;;25.79;84.41
7802;BME280;3945;48.952;9.506;2023-08-21T06:39:21;98501.72;;;25.99;83.33
7802;BME280;3945;48.952;9.506;2023-08-21T06:41:48;98501.91;;;26.23;82.82
7802;BME280;3945;48.952;9.506;2023-08-21T06:44:14;98495.53;;;26.49;81.57
7802;BME280;3945;48.952;9.506;2023-08-21T06:46:42;98500.00;;;26.74;80.93
7802;BME280;3945;48.952;9.506;2023-08-21T06:49:08;98499.53;;;27.01;80.13
7802;BME280;3945;48.952;9.506;2023-08-21T06:51:34;98502.69;;;27.24;78.43
7802;BME280;3945;48.952;9.506;2023-08-21T06:54:01;98503.09;;;27.47;77.98
7802;BME280;3945;48.952;9.506;2023-08-21T06:56:27;98509.47;;;27.72;76.13
7802;BME280;3945;48.952;9.506;2023-08-21T06:58:54;98502.66;;;27.90;75.44
7802;BME280;3945;48.952;9.506;2023-08-21T07:01:21;98507.47;;;28.05;75.12
7802;BME280;3945;48.952;9.506;2023-08-21T07:03:48;98504.22;;;28.24;74.49
7802;BME280;3945;48.952;9.506;2023-08-21T07:06:15;98506.81;;;28.45;72.53
7802;BME280;3945;48.952;9.506;2023-08-21T07:08:41;98503.47;;;28.63;73.93
7802;BME280;3945;48.952;9.506;2023-08-21T07:11:07;98511.09;;;28.82;72.57
7802;BME280;3945;48.952;9.506;2023-08-21T07:13:35;98507.41;;;29.02;71.72
7802;BME280;3945;48.952;9.506;2023-08-21T07:16:01;98499.00;;;29.23;70.77
7802;BME280;3945;48.952;9.506;2023-08-21T07:18:29;98504.19;;;29.40;70.65
7802;BME280;3945;48.952;9.506;2023-08-21T07:20:57;98507.84;;;29.44;69.35
7802;BME280;3945;48.952;9.506;2023-08-21T07:23:23;98501.00;;;29.38;69.92
7802;BME280;3945;48.952;9.506;2023-08-21T07:25:49;98503.53;;;29.31;69.70
7802;BME280;3945;48.952;9.506;2023-08-21T07:28:16;98500.69;;;29.28;70.11
7802;BME280;3945;48.952;9.506;2023-08-21T07:30:42;98504.09;;;29.37;69.86
7802;BME280;3945;48.952;9.506;2023-08-21T07:33:08;98509.25;;;29.54;69.21
7802;BME280;3945;48.952;9.506;2023-08-21T07:35:35;98508.56;;;29.57;68.98
7802;BME280;3945;48.952;9.506;2023-08-21T07:38:03;98511.22;;;29.54;69.09
7802;BME280;3945;48.952;9.506;2023-08-21T07:40:29;98515.25;;;29.44;69.76
7802;BME280;3945;48.952;9.506;2023-08-21T07:42:56;98518.34;;;29.42;70.37
7802;BME280;3945;48.952;9.506;2023-08-21T07:45:22;98524.38;;;29.48;70.14
7802;BME280;3945;48.952;9.506;2023-08-21T07:47:49;98525.38;;;29.56;69.56
7802;BME280;3945;48.952;9.506;2023-08-21T07:50:15;98518.66;;;29.53;68.82
7802;BME280;3945;48.952;9.506;2023-08-21T07:52:42;98525.63;;;29.50;68.93
7802;BME280;3945;48.952;9.506;2023-08-21T07:55:10;98520.84;;;29.47;69.78
7802;BME280;3945;48.952;9.506;2023-08-21T07:57:36;98524.16;;;29.53;70.35
7802;BME280;3945;48.952;9.506;2023-08-21T08:00:03;98531.31;;;29.58;70.70
7802;BME280;3945;48.952;9.506;2023-08-21T08:02:33;98517.94;;;29.56;68.77
7802;BME280;3945;48.952;9.506;2023-08-21T08:04:59;98519.81;;;29.52;70.18
7802;BME280;3945;48.952;9.506;2023-08-21T08:07:26;98522.09;;;29.50;71.08
7802;BME280;3945;48.952;9.506;2023-08-21T08:09:52;98526.50;;;29.55;71.24
7802;BME280;3945;48.952;9.506;2023-08-21T08:12:20;98523.97;;;29.62;70.45
7802;BME280;3945;48.952;9.506;2023-08-21T08:14:46;98531.59;;;29.68;68.20
7802;BME280;3945;48.952;9.506;2023-08-21T08:17:12;98524.16;;;29.69;69.41
7802;BME280;3945;48.952;9.506;2023-08-21T08:19:39;98524.59;;;29.71;70.67
7802;BME280;3945;48.952;9.506;2023-08-21T08:22:05;98531.44;;;29.77;68.33
7802;BME280;3945;48.952;9.506;2023-08-21T08:24:31;98526.28;;;29.75;69.04
7802;BME280;3945;48.952;9.506;2023-08-21T08:26:58;98534.28;;;29.80;68.76
7802;BME280;3945;48.952;9.506;2023-08-21T08:29:25;98529.84;;;29.92;68.33
7802;BME280;3945;48.952;9.506;2023-08-21T08:31:52;98518.72;;;30.00;67.26
7802;BME280;3945;48.952;9.506;2023-08-21T08:34:18;98526.63;;;30.02;67.82
7802;BME280;3945;48.952;9.506;2023-08-21T08:36:45;98520.31;;;30.01;70.11
7802;BME280;3945;48.952;9.506;2023-08-21T08:39:11;98525.47;;;30.03;67.66
7802;BME280;3945;48.952;9.506;2023-08-21T08:41:38;98529.00;;;30.19;69.23
7802;BME280;3945;48.952;9.506;2023-08-21T08:44:08;98521.00;;;30.45;67.63
7802;BME280;3945;48.952;9.506;2023-08-21T08:46:36;98518.84;;;30.70;67.66
7802;BME280;3945;48.952;9.506;2023-08-21T08:49:03;98517.28;;;30.88;65.12
7802;BME280;3945;48.952;9.506;2023-08-21T08:51:30;98516.78;;;31.02;65.74
7802;BME280;3945;48.952;9.506;2023-08-21T08:53:58;98509.50;;;31.29;65.77
7802;BME280;3945;48.952;9.506;2023-08-21T08:56:24;98515.41;;;31.50;65.10
7802;BME280;3945;48.952;9.506;2023-08-21T08:58:51;98507.59;;;31.71;62.19
7802;BME280;3945;48.952;9.506;2023-08-21T09:01:17;98518.50;;;31.87;62.07
7802;BME280;3945;48.952;9.506;2023-08-21T09:03:45;98515.72;;;32.10;62.01
7802;BME280;3945;48.952;9.506;2023-08-21T09:06:11;98520.09;;;32.34;61.18
7802;BME280;3945;48.952;9.506;2023-08-21T09:08:38;98519.19;;;32.52;62.39
7802;BME280;3945;48.952;9.506;2023-08-21T09:11:04;98518.28;;;32.71;59.88
7802;BME280;3945;48.952;9.506;2023-08-21T09:13:30;98516.63;;;32.93;60.67
7802;BME280;3945;48.952;9.506;2023-08-21T09:15:57;98514.91;;;33.11;58.70
7802;BME280;3945;48.952;9.506;2023-08-21T09:18:24;98521.38;;;33.22;58.33
7802;BME280;3945;48.952;9.506;2023-08-21T09:20:52;98513.16;;;33.29;58.56
7802;BME280;3945;48.952;9.506;2023-08-21T09:23:18;98517.97;;;33.36;57.55
7802;BME280;3945;48.952;9.506;2023-08-21T09:25:46;98517.69;;;33.45;59.01
7802;BME280;3945;48.952;9.506;2023-08-21T09:28:13;98508.34;;;33.56;60.86
7802;BME280;3945;48.952;9.506;2023-08-21T09:30:43;98508.88;;;33.69;58.23
7802;BME280;3945;48.952;9.506;2023-08-21T09:33:11;98499.22;;;33.86;58.02
7802;BME280;3945;48.952;9.506;2023-08-21T09:35:37;98503.28;;;34.02;58.09
7802;BME280;3945;48.952;9.506;2023-08-21T09:38:06;98506.09;;;34.09;56.88
7802;BME280;3945;48.952;9.506;2023-08-21T09:40:33;98509.34;;;34.19;58.77
7802;BME280;3945;48.952;9.506;2023-08-21T09:42:59;98507.50;;;34.33;56.18
7802;BME280;3945;48.952;9.506;2023-08-21T09:45:27;98500.53;;;34.50;56.53
7802;BME280;3945;48.952;9.506;2023-08-21T09:47:54;98506.09;;;34.61;55.77
7802;BME280;3945;48.952;9.506;2023-08-21T09:50:20;98505.38;;;34.71;55.79
7802;BME280;3945;48.952;9.506;2023-08-21T09:52:47;98506.19;;;34.71;54.84
7802;BME280;3945;48.952;9.506;2023-08-21T09:55:14;98506.59;;;34.73;54.50
7802;BME280;3945;48.952;9.506;2023-08-21T09:57:41;98505.84;;;34.80;55.04
7802;BME280;3945;48.952;9.506;2023-08-21T10:00:08;98501.56;;;34.90;54.05
7802;BME280;3945;48.952;9.506;2023-08-21T10:02:40;98502.72;;;34.89;56.17
7802;BME280;3945;48.952;9.506;2023-08-21T10:05:08;98498.41;;;34.95;54.77
7802;BME280;3945;48.952;9.506;2023-08-21T10:07:36;98491.28;;;34.90;55.95
7802;BME280;3945;48.952;9.506;2023-08-21T10:10:02;98496.44;;;34.92;54.15
7802;BME280;3945;48.952;9.506;2023-08-21T10:12:30;98487.38;;;34.98;52.63
7802;BME280;3945;48.952;9.506;2023-08-21T10:14:57;98476.75;;;35.07;54.25
7802;BME280;3945;48.952;9.506;2023-08-21T10:17:23;98476.03;;;35.24;54.20
7802;BME280;3945;48.952;9.506;2023-08-21T10:19:50;98472.50;;;35.42;54.61
7802;BME280;3945;48.952;9.506;2023-08-21T10:22:20;98478.47;;;35.51;53.13
7802;BME280;3945;48.952;9.506;2023-08-21T10:25:01;98472.16;;;35.61;53.54
7802;BME280;3945;48.952;9.506;2023-08-21T10:27:30;98476.53;;;35.66;53.35
7802;BME280;3945;48.952;9.506;2023-08-21T10:29:56;98464.28;;;35.77;52.54
7802;BME280;3945;48.952;9.506;2023-08-21T10:32:23;98464.69;;;35.86;51.93
7802;BME280;3945;48.952;9.506;2023-08-21T10:34:51;98469.84;;;35.91;52.00
7802;BME280;3945;48.952;9.506;2023-08-21T10:37:17;98462.28;;;35.74;51.11
7802;BME280;3945;48.952;9.506;2023-08-21T10:39:53;98461.91;;;35.72;50.91
7802;BME280;3945;48.952;9.506;2023-08-21T10:42:21;98470.59;;;35.81;50.97
7802;BME280;3945;48.952;9.506;2023-08-21T10:45:06;98469.81;;;35.77;49.34
7802;BME280;3945;48.952;9.506;2023-08-21T10:47:35;98456.72;;;35.56;51.32
7802;BME280;3945;48.952;9.506;2023-08-21T10:50:02;98460.34;;;35.99;50.86
7802;BME280;3945;48.952;9.506;2023-08-21T10:52:30;98464.63;;;36.71;49.49
7802;BME280;3945;48.952;9.506;2023-08-21T10:54:58;98465.94;;;37.33;49.70
7802;BME280;3945;48.952;9.506;2023-08-21T10:57:25;98456.75;;;38.02;47.29
7802;BME280;3945;48.952;9.506;2023-08-21T10:59:54;98453.94;;;38.50;45.77
7802;BME280;3945;48.952;9.506;2023-08-21T11:02:22;98460.59;;;38.97;45.78
7802;BME280;3945;48.952;9.506;2023-08-21T11:04:49;98453.63;;;39.42;41.82
7802;BME280;3945;48.952;9.506;2023-08-21T11:07:16;98454.66;;;39.79;42.94
7802;BME280;3945;48.952;9.506;2023-08-21T11:09:43;98450.16;;;39.89;41.44
7802;BME280;3945;48.952;9.506;2023-08-21T11:12:11;98460.03;;;39.93;41.75
7802;BME280;3945;48.952;9.506;2023-08-21T11:14:38;98459.09;;;40.00;40.77
7802;BME280;3945;48.952;9.506;2023-08-21T11:17:05;98456.69;;;40.02;41.51
7802;BME280;3945;48.952;9.506;2023-08-21T11:19:33;98447.69;;;40.14;42.88
7802;BME280;3945;48.952;9.506;2023-08-21T11:22:01;98452.63;;;40.06;41.25
7802;BME280;3945;48.952;9.506;2023-08-21T11:24:30;98457.13;;;40.24;40.08
7802;BME280;3945;48.952;9.506;2023-08-21T11:26:57;98445.78;;;40.34;40.62
7802;BME280;3945;48.952;9.506;2023-08-21T11:29:24;98453.28;;;40.37;39.70
7802;BME280;3945;48.952;9.506;2023-08-21T11:31:51;98454.78;;;40.42;40.96
7802;BME280;3945;48.952;9.506;2023-08-21T11:34:18;98448.38;;;40.45;42.36
7802;BME280;3945;48.952;9.506;2023-08-21T11:36:46;98454.19;;;40.54;39.87
7802;BME280;3945;48.952;9.506;2023-08-21T11:39:13;98448.81;;;40.63;41.36
7802;BME280;3945;48.952;9.506;2023-08-21T11:41:55;98444.38;;;40.85;39.48
7802;BME280;3945;48.952;9.506;2023-08-21T11:44:22;98445.19;;;41.06;39.06
7802;BME280;3945;48.952;9.506;2023-08-21T11:46:51;98447.50;;;41.07;38.96
7802;BME280;3945;48.952;9.506;2023-08-21T11:49:18;98445.38;;;41.15;37.32
7802;BME280;3945;48.952;9.506;2023-08-21T11:51:48;98444.38;;;41.05;39.14
7802;BME280;3945;48.952;9.506;2023-08-21T11:54:17;98440.38;;;41.06;38.33
7802;BME280;3945;48.952;9.506;2023-08-21T11:56:44;98443.53;;;41.08;39.01
7802;BME280;3945;48.952;9.506;2023-08-21T11:59:21;98437.66;;;41.03;38.30
7802;BME280;3945;48.952;9.506;2023-08-21T12:01:50;98445.03;;;40.93;37.92
7802;BME280;3945;48.952;9.506;2023-08-21T12:04:17;98443.75;;;40.98;38.00
7802;BME280;3945;48.952;9.506;2023-08-21T12:06:44;98446.69;;;40.90;40.21
7802;BME280;3945;48.952;9.506;2023-08-21T12:09:12;98444.19;;;40.96;39.16
7802;BME280;3945;48.952;9.506;2023-08-21T12:11:38;98442.09;;;41.00;38.20
7802;BME280;3945;48.952;9.506;2023-08-21T12:14:05;98441.88;;;40.71;38.44
7802;BME280;3945;48.952;9.506;2023-08-21T12:16:31;98434.94;;;40.60;39.43
7802;BME280;3945;48.952;9.506;2023-08-21T12:18:58;98436.88;;;40.63;39.53
7802;BME280;3945;48.952;9.506;2023-08-21T12:21:24;98435.09;;;40.72;38.91
7802;BME280;3945;48.952;9.506;2023-08-21T12:23:51;98432.47;;;40.85;38.21
7802;BME280;3945;48.952;9.506;2023-08-21T12:26:19;98441.28;;;41.00;38.04
7802;BME280;3945;48.952;9.506;2023-08-21T12:28:46;98430.94;;;40.80;38.57
7802;BME280;3945;48.952;9.506;2023-08-21T12:31:13;98432.03;;;40.67;40.46
7802;BME280;3945;48.952;9.506;2023-08-21T12:33:40;98432.13;;;40.60;39.18
7802;BME280;3945;48.952;9.506;2023-08-21T12:36:07;98438.41;;;40.67;40.52
7802;BME280;3945;48.952;9.506;2023-08-21T12:38:34;98430.72;;;40.71;41.24
7802;BME280;3945;48.952;9.506;2023-08-21T12:41:01;98427.28;;;40.83;39.67
7802;BME280;3945;48.952;9.506;2023-08-21T12:43:30;98428.06;;;41.04;39.33
7802;BME280;3945;48.952;9.506;2023-08-21T12:45:56;98428.63;;;41.15;39.92
7802;BME280;3945;48.952;9.506;2023-08-21T12:48:23;98433.72;;;40.80;39.97
7802;BME280;3945;48.952;9.506;2023-08-21T12:50:49;98421.94;;;40.06;39.89
7802;BME280;3945;48.952;9.506;2023-08-21T12:53:16;98419.19;;;39.83;41.31
7802;BME280;3945;48.952;9.506;2023-08-21T12:55:43;98419.53;;;39.85;41.10
7802;BME280;3945;48.952;9.506;2023-08-21T12:58:09;98412.84;;;40.02;38.12
7802;BME280;3945;48.952;9.506;2023-08-21T13:00:40;98406.34;;;40.09;38.28
7802;BME280;3945;48.952;9.506;2023-08-21T13:03:06;98411.31;;;40.21;38.71
7802;BME280;3945;48.952;9.506;2023-08-21T13:05:33;98414.19;;;40.17;38.72
7802;BME280;3945;48.952;9.506;2023-08-21T13:08:00;98415.69;;;40.22;38.24
7802;BME280;3945;48.952;9.506;2023-08-21T13:10:26;98408.19;;;39.96;38.75
7802;BME280;3945;48.952;9.506;2023-08-21T13:12:53;98410.56;;;39.47;38.69
7802;BME280;3945;48.952;9.506;2023-08-21T13:15:19;98406.69;;;38.80;39.07
7802;BME280;3945;48.952;9.506;2023-08-21T13:17:47;98407.66;;;38.29;40.84
7802;BME280;3945;48.952;9.506;2023-08-21T13:20:14;98407.31;;;38.23;41.43
7802;BME280;3945;48.952;9.506;2023-08-21T13:22:44;98401.97;;;38.40;41.58